Terminal Aerodrome Forecast
Issued by NWS Twin Cities, MN

Home | Current Version | Previous Version | Graphics & Text | Print | Product List | Glossary On
Versions: 1 2 3 4 5 6 7 8 9 10 11 12 13 14
000
FTUS43 KMPX 221412 AAA
TAFSTC
TAF AMD
KSTC 221412Z 2214/2312 07005KT 6SM -RA BR SCT050 BKN120
      TEMPO 2214/2218 4SM RA BR OVC050
     FM221800 34005KT 6SM -RA BR SCT050 OVC100
     FM222200 27006KT P6SM BKN120
     FM222300 27007KT P6SM BKN150
     FM230900 28006KT P6SM FEW200=

USA.gov is the U.S. government's official web portal to all federal, state and local government web resources and services.